KFSI/FSI METAR and TAF weather

Enter ICAO airport designator
Station Type Date Time Source
KFSI METAR 2019/10/23 20:56 UTC NOAA

KFSI 232056Z AUTO 19009KT 10SM CLR 28/12 A2985 RMK AO2 SLP103 T02770121 57020


Station Type Date Time Source
KFSI Decoded METAR 2019/10/23 20:56 UTC NOAA

Fort Sill, OK, United States (KFSI) 34-36N 098-24W 360M
Oct 23, 2019 - 04:56 PM EDT / 2019.10.23 2056 UTC
Wind: from the S (190 degrees) at 10 MPH (9 KT):0
Visibility: 10 mile(s):0
Sky conditions: clear
Temperature: 81.9 F (27.7 C)
Dew Point: 53.8 F (12.1 C)
Relative Humidity: 37%
Pressure (altimeter): 29.85 in. Hg (1010 hPa)
Pressure tendency: 0.06 inches (2.0 hPa) lower than three hours ago
ob: KFSI 232056Z AUTO 19009KT 10SM CLR 28/12 A2985 RMK AO2 SLP103 T02770121 57020
cycle: 21

Station Type Date Time Source
KFSI TAF 2019/10/23 21:09 UTC NOAA

TAF KFSI 232100Z 2321/2503 21012G18KT 9999 SKC QNH2985INS
BECMG 2401/2402 VRB06KT 9999 SCT060 QNH2983INS
BECMG 2405/2406 06010KT 6000 -SHRA FEW015 SCT030 BKN060 QNH2985INS
TEMPO 2406/2410 VRB12G18KT 4800 -TSRA BKN015CB
BECMG 2410/2411 02012KT 6000 -SHRA SCT005 OVC008 QNH2992INS
BECMG 2415/2416 02015G25KT 6000 -SHRA SCT008 OVC012 QNH3002INS TX29/2322Z TN08/2414Z LAST NO
AMDS AFT 2323 NEXT 2412

Example: see airport list